AirNav   Air Wisconsin Up To $57,000 Bonus
 
 1061 users online  

1OI4 Som Jackson Heliport
Moreland Hills, Ohio, USA

GOING TO MORELAND HILLS?


FAA INFORMATION EFFECTIVE 22 APRIL 2021

Location

FAA Identifier: 1OI4
Lat/Long: 41-26-27.1920N 081-26-35.4170W
41-26.453200N 081-26.590283W
41.4408867,-81.4431714
(estimated)
Elevation: 1050 ft. / 320 m (estimated)
Variation: 07W (1985)
From city: 1 mile N of MORELAND HILLS, OH
Time zone: UTC -4 (UTC -5 during Standard Time)
Zip code: 44022

Heliport Operations

Heliport use: Private use. Permission required prior to landing
Activation date: 08/1980
Control tower: no
ARTCC: CLEVELAND CENTER
FSS: CLEVELAND FLIGHT SERVICE STATION
Attendance: UNATNDD
Segmented circle: no

Heliport Communications

WX AWOS-3 at CGF (8 nm N): 119.950 (216-289-4113)
WX ASOS at BKL (12 nm NW): PHONE 216-241-6904
WX AWOS-3PT at LNN (15 nm N): 119.225 (440-942-0809)
WX AWOS-3 at POV (16 nm SE): 118.675 (330-298-9353)
WX AWOS-2 at 1G3 (17 nm S): 119.15 (330-346-1497)
WX ASOS at CLE (19 nm W): PHONE 216-416-2729

Nearby radio navigation aids

VOR radial/distance  VOR name  Freq  Var
CXRr255/13.4CHARDON VOR/DME112.7005W
ACOr335/22.8AKRON VOR/DME114.4004W
DJBr086/32.7DRYER VOR/DME113.6005W
YNGr286/35.2YOUNGSTOWN VORTAC109.0005W
JFNr243/36.6JEFFERSON VOR/DME115.2005W

 
NDB name  Hdg/Dist  Freq  Var  ID
LAKELAND199/14.826308WLQL .-.. --.- .-..

Heliport Services

Runway Information

Helipad H1

Dimensions: 200 x 200 ft. / 61 x 61 m
Surface: turf
Latitude: 41-26.453200N
Longitude: 081-26.590283W
Elevation: 1050.0 ft.
Traffic pattern: leftleft

Heliport Ownership and Management from official FAA records

Ownership: Privately-owned
Owner: BECKETT AVIATION CORP
CLEVELAND HOPKINS AIRPORT
CLEVELAND, OH 44135
Phone 216-826-9252
Manager: C. H. TRAWEEK
Phone 216-826-9252

Additional Remarks

FOR CD CTC CLEVELAND APCH AT 216-352-2323

Instrument Procedures

There are no published instrument procedures at 1OI4.

Some nearby airports with instrument procedures:

KCGF - Cuyahoga County Airport (8 nm N)
KBKL - Burke Lakefront Airport (12 nm NW)
KLNN - Lake County Executive Airport (15 nm N)
KPOV - Portage County Airport (16 nm SE)
7G8 - Geauga County Airport (17 nm E)
1G3 - Kent State University Airport (17 nm S)
2G1 - Concord Airpark (17 nm NE)
KCLE - Cleveland-Hopkins International Airport (19 nm W)
 
Loc | Ops | Rwys | IFR | FBO | Links
Com | Nav | Svcs | Stats | Notes
Area around 1OI4 (Som Jackson Heliport)
 
Road maps at: MapQuest Bing Google
 
Aerial photo
No photo
 
Sectional chart

 
Airport distance calculator
Flying to Som Jackson Heliport? Find the distance to fly.

From to 1OI4

Sunrise and sunset
Times for 16-May-2021
 Local
(UTC-4)
 Zulu
(UTC)
Morning civil twilight05:3509:35
Sunrise06:0710:07
Sunset20:3800:38
Evening civil twilight21:0901:09

Current date and time
Zulu (UTC)  16-May-2021 23:51:12
Local (UTC-4)  16-May-2021 19:51:12
 
METAR
KCGF 
8nm N 
162245Z 03005KT 20SM FEW055 SCT200 18/06 A3022
KBKL 
11nm NW 
162253Z 04007KT 10SM CLR 17/10 A3021 RMK AO2 SLP229 T01720100
KLNN 
14nm N 
162335Z AUTO 04004KT 10SM CLR 16/02 A3021 RMK AO1 T01570017
KPOV 
16nm SE 
162335Z AUTO 00000KT 10SM SCT100 18/03 A3020 RMK AO2 T01760033 PWINO
KCLE 
18nm W 
162251Z 03010KT 10SM FEW080 SCT250 18/04 A3020 RMK AO2 SLP242 T01830044
TAF
KCLE 
18nm W 
162039Z 1621/1724 02006KT P6SM SCT090 FM170300 VRB03KT P6SM SCT060 BKN150
NOTAMs
Click for the latest NOTAMs
NOTAMs are issued by the DoD/FAA and will open in a separate window not controlled by AirNav.

 

 
 

Would you like to see your business listed on this page?

 If your business provides an interesting product or service to pilots, flight crews, aircraft, or users of the Som Jackson Heliport, you should consider listing it here.  To start the listing process, click on the button below
 
Add a business
 

Other Pages about Som Jackson Heliport

Update a link
 
Copyright © AirNav, LLC. All rights reserved. Privacy Policy  Contact